Time;durP1;ratioP1;P1;durP2;ratioP2;P2;SDS_P1;SDS_P2;PMS_P1;PMS_P2;Temp;Humidity;BMP_temperature;BMP_pressure;BME280_temperature;BME280_humidity;BME280_pressure;Samples;Min_cycle;Max_cycle;Signal;HPM_P1;HPM_P2
2022/10/10 16:45:21;;;;;;;3.60;0.83;;;14.80;99.90;;;;;;6293387;22;1253826;-65
2022/10/10 16:47:48;;;;;;;3.83;0.73;;;14.80;99.90;;;;;;6338528;22;20218;-66
2022/10/10 16:50:15;;;;;;;4.40;0.80;;;14.80;99.90;;;;;;6338376;22;20193;-66
2022/10/10 16:52:41;;;;;;;4.60;1.50;;;14.80;99.90;;;;;;6338486;22;20287;-66
2022/10/10 16:55:10;;;;;;;3.17;0.70;;;14.90;99.90;;;;;;6338200;22;20180;-67
2022/10/10 16:57:37;;;;;;;2.50;0.60;;;14.90;99.90;;;;;;6337922;22;20256;-70
2022/10/10 17:00:05;;;;;;;3.60;0.70;;;14.80;99.90;;;;;;6338110;22;20505;-67
2022/10/10 17:02:33;;;;;;;0.90;0.53;;;14.90;99.90;;;;;;6338117;22;20660;-67
2022/10/10 17:05:00;;;;;;;2.47;0.80;;;14.90;99.90;;;;;;6338989;22;20180;-66
2022/10/10 17:07:27;;;;;;;2.23;0.60;;;14.90;99.90;;;;;;6338566;22;20184;-66
2022/10/10 17:09:54;;;;;;;1.20;0.73;;;14.90;99.90;;;;;;6337339;22;20177;-65
2022/10/10 17:12:21;;;;;;;2.60;0.80;;;14.90;99.90;;;;;;6333287;22;20524;-69
2022/10/10 17:14:48;;;;;;;4.87;0.93;;;14.90;99.90;;;;;;6335612;22;20177;-74
2022/10/10 17:17:16;;;;;;;1.93;0.80;;;14.90;99.90;;;;;;6337195;22;20256;-69
2022/10/10 17:19:44;;;;;;;4.03;0.90;;;14.90;99.90;;;;;;6336720;22;20177;-64
2022/10/10 17:22:11;;;;;;;3.00;1.20;;;14.90;99.90;;;;;;6333441;22;20177;-68
2022/10/10 17:24:38;;;;;;;6.27;0.90;;;15.00;99.90;;;;;;6333637;22;20181;-67
2022/10/10 17:27:05;;;;;;;2.57;0.80;;;15.00;99.90;;;;;;6336568;22;20501;-68
2022/10/10 17:29:32;;;;;;;5.77;1.07;;;14.90;99.90;;;;;;6337344;22;20260;-66
2022/10/10 17:31:58;;;;;;;3.50;0.90;;;15.00;99.90;;;;;;6336988;22;20521;-67
2022/10/10 17:34:25;;;;;;;5.40;1.30;;;14.90;99.90;;;;;;6336779;22;20515;-70
2022/10/10 17:36:54;;;;;;;6.40;1.40;;;14.80;99.90;;;;;;6338692;22;20177;-68
2022/10/10 17:39:20;;;;;;;6.47;1.57;;;14.70;99.90;;;;;;6339140;22;20231;-67
2022/10/10 17:41:47;;;;;;;12.73;3.87;;;14.50;99.90;;;;;;6338182;22;20197;-73
2022/10/10 17:44:14;;;;;;;7.77;1.83;;;14.60;99.90;;;;;;6338408;22;20192;-66
2022/10/10 17:46:41;;;;;;;7.23;2.10;;;14.60;99.90;;;;;;6337874;22;20651;-66
2022/10/10 17:49:10;;;;;;;5.10;1.67;;;14.60;99.90;;;;;;6338615;22;20177;-65
2022/10/10 17:51:38;;;;;;;5.77;1.70;;;14.60;99.90;;;;;;6338731;22;20193;-65
2022/10/10 17:54:08;;;;;;;6.33;2.10;;;14.50;99.90;;;;;;6338852;22;20174;-71
2022/10/10 17:56:36;;;;;;;5.87;1.20;;;14.40;99.90;;;;;;6338651;22;20177;-66
2022/10/10 17:59:05;;;;;;;3.50;1.10;;;14.40;99.90;;;;;;6339006;22;20177;-69
2022/10/10 18:01:32;;;;;;;3.60;1.00;;;14.30;99.90;;;;;;6338077;22;20495;-66
2022/10/10 18:04:00;;;;;;;7.47;1.20;;;14.10;99.90;;;;;;6338769;22;20177;-70
2022/10/10 18:06:28;;;;;;;3.40;1.10;;;14.20;99.90;;;;;;6338767;22;20183;-66
2022/10/10 18:08:56;;;;;;;6.67;1.30;;;14.20;99.90;;;;;;6338904;22;20174;-69
2022/10/10 18:11:26;;;;;;;9.00;1.20;;;14.10;99.90;;;;;;6338478;22;20225;-64
2022/10/10 18:13:58;;;;;;;3.70;1.40;;;14.10;99.90;;;;;;6338362;22;20669;-65
2022/10/10 18:16:27;;;;;;;4.77;1.57;;;14.00;99.90;;;;;;6338902;22;20180;-65
2022/10/10 18:18:54;;;;;;;8.17;2.50;;;13.90;99.90;;;;;;6335999;22;20180;-66
2022/10/10 18:21:22;;;;;;;5.43;2.27;;;13.80;99.90;;;;;;6338664;22;20199;-65
2022/10/10 18:23:50;;;;;;;4.00;2.03;;;13.90;99.90;;;;;;6338659;22;20184;-66
2022/10/10 18:26:19;;;;;;;4.83;2.13;;;13.80;99.90;;;;;;6339143;22;20208;-72
2022/10/10 18:28:48;;;;;;;10.00;3.77;;;13.70;99.90;;;;;;6338115;22;20582;-76
2022/10/10 18:31:17;;;;;;;6.30;2.37;;;13.70;99.90;;;;;;6338049;22;20200;-72
2022/10/10 18:33:45;;;;;;;4.03;1.80;;;13.60;99.90;;;;;;6339409;22;20205;-73
2022/10/10 18:36:13;;;;;;;6.53;1.80;;;13.30;99.90;;;;;;6340271;22;20184;-75
2022/10/10 18:38:41;;;;;;;5.30;1.63;;;13.40;99.90;;;;;;6342563;22;20183;-81
2022/10/10 18:41:10;;;;;;;5.77;1.30;;;13.40;99.90;;;;;;6345134;22;20197;-76
2022/10/10 18:43:38;;;;;;;4.07;1.30;;;13.60;99.90;;;;;;6343840;22;20669;-71
2022/10/10 18:46:08;;;;;;;4.70;1.90;;;13.50;99.90;;;;;;6343389;22;20185;-76
2022/10/10 18:48:37;;;;;;;5.80;2.80;;;13.30;99.90;;;;;;6344695;22;20227;-71
2022/10/10 18:51:05;;;;;;;5.87;1.60;;;13.20;99.90;;;;;;6344198;22;20230;-74
2022/10/10 18:53:35;;;;;;;4.37;1.50;;;13.10;99.90;;;;;;6343693;22;20287;-78
2022/10/10 18:56:02;;;;;;;3.43;1.57;;;13.00;99.90;;;;;;6340955;22;20173;-75
2022/10/10 18:58:30;;;;;;;7.13;1.53;;;13.00;99.90;;;;;;6340916;22;20181;-65
2022/10/10 19:00:58;;;;;;;6.67;1.47;;;12.90;99.90;;;;;;6340730;22;20193;-78
2022/10/10 19:03:27;;;;;;;8.00;1.77;;;12.90;99.90;;;;;;6340706;22;20245;-65
2022/10/10 19:05:54;;;;;;;5.40;1.53;;;12.70;99.90;;;;;;6341465;22;20700;-65
2022/10/10 19:08:20;;;;;;;2.93;1.40;;;12.60;99.90;;;;;;6341130;22;20259;-71
2022/10/10 19:10:49;;;;;;;6.77;1.30;;;12.70;99.90;;;;;;6341290;22;20221;-66
2022/10/10 19:13:17;;;;;;;7.03;1.27;;;12.50;99.90;;;;;;6340759;22;20212;-66
2022/10/10 19:15:44;;;;;;;3.30;1.50;;;12.40;99.90;;;;;;6341352;22;20173;-73
2022/10/10 19:18:11;;;;;;;3.73;1.67;;;12.40;99.90;;;;;;6342773;22;20177;-69
2022/10/10 19:20:39;;;;;;;4.57;1.33;;;12.30;99.90;;;;;;6340709;22;20566;-65
2022/10/10 19:23:06;;;;;;;6.70;1.53;;;12.20;99.90;;;;;;6340509;22;20184;-67
2022/10/10 19:25:37;;;;;;;5.07;1.60;;;12.10;99.90;;;;;;6340819;22;20256;-65
2022/10/10 19:28:05;;;;;;;3.80;1.33;;;12.00;99.90;;;;;;6340737;22;20324;-66
2022/10/10 19:30:32;;;;;;;6.20;1.47;;;11.90;99.90;;;;;;6340469;22;20277;-66
2022/10/10 19:32:58;;;;;;;9.77;1.63;;;11.90;99.90;;;;;;6340759;22;20205;-69
2022/10/10 19:35:25;;;;;;;6.57;1.50;;;11.80;99.90;;;;;;6340394;22;20276;-74
2022/10/10 19:37:53;;;;;;;2.87;1.50;;;11.70;99.90;;;;;;6340263;22;20173;-66
2022/10/10 19:40:20;;;;;;;5.67;1.70;;;11.70;99.90;;;;;;6340386;22;20207;-66
2022/10/10 19:42:47;;;;;;;7.17;2.17;;;11.60;99.90;;;;;;6339916;22;20181;-67
2022/10/10 19:45:14;;;;;;;3.97;1.77;;;11.60;99.90;;;;;;6339556;22;20260;-67
2022/10/10 19:47:41;;;;;;;4.53;1.60;;;11.50;99.90;;;;;;6340352;22;20260;-66
2022/10/10 19:50:08;;;;;;;6.90;2.10;;;11.50;99.90;;;;;;6340073;22;20684;-66
2022/10/10 19:52:35;;;;;;;8.30;1.60;;;11.50;99.90;;;;;;6339943;22;20242;-75
2022/10/10 19:55:04;;;;;;;5.27;1.70;;;11.50;99.90;;;;;;6339579;22;20655;-66
2022/10/10 19:57:32;;;;;;;6.10;1.87;;;11.40;99.90;;;;;;6340173;22;20180;-66
2022/10/10 19:59:59;;;;;;;6.83;2.07;;;11.40;99.90;;;;;;6339714;22;20540;-65
2022/10/10 20:02:25;;;;;;;6.97;2.33;;;11.20;99.90;;;;;;6340054;22;20177;-77
2022/10/10 20:04:52;;;;;;;5.30;2.20;;;11.20;99.90;;;;;;6340310;22;20179;-76
2022/10/10 20:07:19;;;;;;;5.90;1.73;;;11.10;99.90;;;;;;6340483;22;20260;-70
2022/10/10 20:09:47;;;;;;;6.07;1.93;;;11.10;99.90;;;;;;6339606;22;20177;-66
2022/10/10 20:12:15;;;;;;;2.73;1.50;;;11.00;99.90;;;;;;6339050;22;20177;-71
2022/10/10 20:14:42;;;;;;;5.43;1.80;;;10.90;99.90;;;;;;6338651;22;20208;-70
2022/10/10 20:17:09;;;;;;;8.10;1.87;;;10.80;99.90;;;;;;6338922;22;20180;-66
2022/10/10 20:19:36;;;;;;;3.97;1.60;;;10.80;99.90;;;;;;6339436;22;20184;-78
2022/10/10 20:22:02;;;;;;;4.53;1.80;;;10.80;99.90;;;;;;6338488;22;20199;-73
2022/10/10 20:24:29;;;;;;;5.07;1.70;;;10.70;99.90;;;;;;6339587;22;20263;-68
2022/10/10 20:26:56;;;;;;;5.73;1.90;;;10.60;99.90;;;;;;6339653;22;20260;-80
2022/10/10 20:29:24;;;;;;;4.93;1.60;;;10.60;99.90;;;;;;6339404;22;20174;-66
2022/10/10 20:31:51;;;;;;;5.03;1.73;;;10.50;99.90;;;;;;6339592;22;20542;-80
2022/10/10 20:34:18;;;;;;;4.13;1.30;;;10.40;99.90;;;;;;6340049;22;20211;-68
2022/10/10 20:36:44;;;;;;;4.13;1.80;;;10.40;99.90;;;;;;6340433;22;20184;-65
2022/10/10 20:39:13;;;;;;;6.47;1.47;;;10.40;99.90;;;;;;6339992;22;20567;-64
2022/10/10 20:41:41;;;;;;;7.17;1.70;;;10.40;99.90;;;;;;6340016;22;20197;-65
2022/10/10 20:44:10;;;;;;;11.93;2.00;;;10.40;99.90;;;;;;6339784;22;20177;-64
2022/10/10 20:46:40;;;;;;;6.03;1.80;;;10.30;99.90;;;;;;6339405;22;20260;-70
2022/10/10 20:49:11;;;;;;;5.80;2.10;;;10.20;99.90;;;;;;6339401;22;20226;-79
2022/10/10 20:51:38;;;;;;;6.80;1.53;;;10.20;99.90;;;;;;6339775;22;20194;-65
2022/10/10 20:54:06;;;;;;;6.63;2.30;;;10.10;99.90;;;;;;6339031;22;20207;-65
2022/10/10 20:56:34;;;;;;;5.50;2.63;;;10.00;99.90;;;;;;6339148;22;20200;-65
2022/10/10 20:59:01;;;;;;;4.80;1.93;;;9.90;99.90;;;;;;6339333;22;20180;-65
2022/10/10 21:01:30;;;;;;;6.43;2.20;;;9.90;99.90;;;;;;6339075;22;20272;-65
2022/10/10 21:03:58;;;;;;;9.37;2.77;;;9.90;99.90;;;;;;6339767;22;20234;-66
2022/10/10 21:06:26;;;;;;;11.57;3.03;;;9.90;99.90;;;;;;6339662;22;20203;-65
2022/10/10 21:08:54;;;;;;;8.10;2.47;;;9.90;99.90;;;;;;6339867;22;20231;-73
2022/10/10 21:11:22;;;;;;;9.57;3.40;;;9.80;99.90;;;;;;6339517;22;20193;-76
2022/10/10 21:13:52;;;;;;;8.00;3.00;;;9.80;99.90;;;;;;6339814;22;20307;-65
2022/10/10 21:16:20;;;;;;;9.07;2.73;;;9.80;99.90;;;;;;6339322;22;20259;-65
2022/10/10 21:18:46;;;;;;;6.83;3.10;;;9.80;99.90;;;;;;6339378;22;20181;-65
2022/10/10 21:21:15;;;;;;;7.43;2.90;;;9.70;99.90;;;;;;6338853;22;20197;-65
2022/10/10 21:23:43;;;;;;;9.83;3.57;;;9.70;99.90;;;;;;6339337;22;20183;-65
2022/10/10 21:26:12;;;;;;;9.67;2.70;;;9.60;99.90;;;;;;6339744;22;20498;-65
2022/10/10 21:28:39;;;;;;;7.60;2.83;;;9.60;99.90;;;;;;6338637;22;20502;-65
2022/10/10 21:31:07;;;;;;;8.70;2.97;;;9.50;99.90;;;;;;6339130;22;20193;-65
2022/10/10 21:33:34;;;;;;;8.00;2.90;;;9.50;99.90;;;;;;6338874;22;20210;-70
2022/10/10 21:36:01;;;;;;;4.10;2.30;;;9.40;99.90;;;;;;6339279;22;20173;-64
2022/10/10 21:38:30;;;;;;;10.27;2.90;;;9.40;99.90;;;;;;6339362;22;20173;-77
2022/10/10 21:40:57;;;;;;;7.03;2.87;;;9.30;99.90;;;;;;6339148;22;20742;-68
2022/10/10 21:43:24;;;;;;;6.33;2.70;;;9.30;99.90;;;;;;6339318;22;20173;-65
2022/10/10 21:45:50;;;;;;;9.20;2.10;;;9.30;99.90;;;;;;6338867;22;20191;-83
2022/10/10 21:48:17;;;;;;;6.53;2.63;;;9.20;99.90;;;;;;6339212;22;20173;-74
2022/10/10 21:50:44;;;;;;;11.20;2.60;;;9.20;99.90;;;;;;6339562;22;20669;-79
2022/10/10 21:53:11;;;;;;;3.77;2.50;;;9.20;99.90;;;;;;6339378;22;20208;-75
2022/10/10 21:55:39;;;;;;;8.10;2.13;;;9.20;99.90;;;;;;6339526;22;20173;-74
2022/10/10 21:58:06;;;;;;;4.80;1.80;;;9.10;99.90;;;;;;6340010;22;20234;-75
2022/10/10 22:00:33;;;;;;;9.37;2.40;;;9.00;99.90;;;;;;6339754;22;20275;-83
